createdAt,value
2023-07-16T00:01:52.505Z,96579.94
2023-07-16T00:06:55.746Z,96575.81
2023-07-16T00:12:00.374Z,96567.75
2023-07-16T00:17:03.672Z,96562.31
2023-07-16T00:22:07.038Z,96574.53
2023-07-16T00:27:11.595Z,96567.34
2023-07-16T00:32:14.934Z,96574.44
2023-07-16T00:37:18.220Z,96587.75
2023-07-16T00:42:22.895Z,96594.09
2023-07-16T00:47:26.231Z,96595.47
2023-07-16T00:52:30.578Z,96611.38
2023-07-16T00:57:35.403Z,96627.03
2023-07-16T01:02:38.743Z,96619.44
2023-07-16T01:07:46.963Z,96603.91
2023-07-16T01:12:52.135Z,96569.88
2023-07-16T01:17:55.510Z,96585.81
2023-07-16T01:23:22.206Z,96591.13
2023-07-16T01:28:56.360Z,96583.53
2023-07-16T01:34:01.562Z,96594.22
2023-07-16T01:39:04.959Z,96595.13
2023-07-16T01:44:08.317Z,96603.63
2023-07-16T01:49:12.850Z,96592.22
2023-07-16T01:54:16.142Z,96601.34
2023-07-16T01:59:19.341Z,96599.69
2023-07-16T02:04:24.019Z,96609.22
2023-07-16T02:09:27.387Z,96617.16
2023-07-16T02:14:30.610Z,96616.09
2023-07-16T02:19:35.582Z,96622.69
2023-07-16T02:24:38.882Z,96615.03
2023-07-16T02:29:42.107Z,96608.59
2023-07-16T02:34:46.715Z,96604.75
2023-07-16T02:39:49.979Z,96619.09
2023-07-16T02:44:53.222Z,96615.88
2023-07-16T02:49:57.888Z,96620.13
2023-07-16T02:55:01.189Z,96631.16
2023-07-16T03:00:05.108Z,96617.69
2023-07-16T03:05:10.183Z,96613.78
2023-07-16T03:10:13.377Z,96611.88
2023-07-16T03:15:16.849Z,96618.16
2023-07-16T03:20:21.936Z,96620.94
2023-07-16T03:25:25.130Z,96601.13
2023-07-16T03:30:28.392Z,96612.19
2023-07-16T03:35:33.132Z,96612.66
2023-07-16T03:40:36.502Z,96625.66
2023-07-16T03:45:39.753Z,96622.09
2023-07-16T03:50:44.321Z,96624.34
2023-07-16T03:55:47.492Z,96632.72
2023-07-16T04:00:50.762Z,96630.19
2023-07-16T04:06:03.562Z,96629.59
2023-07-16T04:11:07.713Z,96599.19
2023-07-16T04:16:11.033Z,96595.66
2023-07-16T04:21:15.667Z,96611.59
2023-07-16T04:26:19.114Z,96625.00
2023-07-16T04:31:22.658Z,96626.81
2023-07-16T04:36:27.426Z,96659.31
2023-07-16T04:41:30.618Z,96673.56
2023-07-16T04:46:33.995Z,96684.72
2023-07-16T04:51:38.583Z,96688.56
2023-07-16T04:56:41.818Z,96679.16
2023-07-16T05:01:45.121Z,96667.69
2023-07-16T05:11:52.870Z,96663.75
2023-07-16T05:16:56.427Z,96651.72
2023-07-16T05:22:01.148Z,96625.63
2023-07-16T05:27:04.768Z,96644.19
2023-07-16T05:32:08.889Z,96646.06
2023-07-16T05:37:14.005Z,96656.31
2023-07-16T05:42:17.213Z,96662.69
2023-07-16T05:47:21.838Z,96672.06
2023-07-16T05:52:26.513Z,96672.44
2023-07-16T05:57:29.730Z,96683.44
2023-07-16T06:02:32.953Z,96680.53
2023-07-16T06:07:37.518Z,96679.41
2023-07-16T06:12:40.815Z,96677.66
2023-07-16T06:17:44.094Z,96692.56
2023-07-16T06:22:48.877Z,96688.97
2023-07-16T06:27:52.156Z,96673.59
2023-07-16T06:32:55.462Z,96675.50
2023-07-16T06:38:00.057Z,96672.56
2023-07-16T06:43:03.323Z,96671.09
2023-07-16T06:48:07.513Z,96667.88
2023-07-16T06:53:12.170Z,96664.63
2023-07-16T06:58:16.396Z,96660.88
2023-07-16T07:03:19.694Z,96669.56
2023-07-16T07:08:24.506Z,96683.09
2023-07-16T07:13:27.867Z,96682.22
2023-07-16T07:18:31.205Z,96680.94
2023-07-16T07:23:35.884Z,96680.22
2023-07-16T07:28:39.080Z,96665.28
2023-07-16T07:33:42.450Z,96656.38
2023-07-16T07:38:47.082Z,96664.06
2023-07-16T07:43:50.361Z,96662.47
2023-07-16T07:48:53.711Z,96667.06
2023-07-16T07:53:58.430Z,96665.94
2023-07-16T07:59:01.910Z,96666.22
2023-07-16T08:04:05.310Z,96669.91
2023-07-16T08:09:10.183Z,96665.41
2023-07-16T08:14:13.570Z,96664.09
2023-07-16T08:19:16.838Z,96658.00
2023-07-16T08:24:21.446Z,96650.97
2023-07-16T08:29:24.618Z,96646.25
2023-07-16T08:34:27.859Z,96652.72
2023-07-16T08:39:33.674Z,96644.66
2023-07-16T08:44:37.568Z,96651.06
2023-07-16T08:49:41.971Z,96654.53
2023-07-16T08:54:46.536Z,96651.38
2023-07-16T08:59:50.358Z,96658.00
2023-07-16T09:04:53.610Z,96662.22
2023-07-16T09:10:02.236Z,96659.38
2023-07-16T09:15:06.284Z,96649.44
2023-07-16T09:20:11.128Z,96642.19
2023-07-16T09:25:16.041Z,96644.88
2023-07-16T09:30:19.505Z,96645.09
2023-07-16T09:35:22.670Z,96650.84
2023-07-16T09:40:27.545Z,96633.59
2023-07-16T09:45:30.926Z,96639.44
2023-07-16T09:50:36.141Z,96641.56
2023-07-16T09:55:41.969Z,96643.19
2023-07-16T10:00:45.390Z,96637.47
2023-07-16T10:05:49.231Z,96638.09
2023-07-16T10:10:58.300Z,96634.41
2023-07-16T10:16:02.064Z,96620.94
2023-07-16T10:21:08.188Z,96625.72
2023-07-16T10:26:18.303Z,96617.59
2023-07-16T10:31:24.570Z,96621.34
2023-07-16T10:36:28.070Z,96623.81
2023-07-16T10:41:33.083Z,96614.75
2023-07-16T10:46:36.547Z,96610.88
2023-07-16T10:51:39.887Z,96609.03
2023-07-16T10:56:44.499Z,96602.84
2023-07-16T11:01:48.318Z,96598.56
2023-07-16T11:06:52.468Z,96588.88
2023-07-16T11:11:57.285Z,96591.41
2023-07-16T11:17:06.531Z,96580.78
2023-07-16T11:22:10.636Z,96574.63
2023-07-16T11:27:19.248Z,96568.34
2023-07-16T11:32:32.932Z,96567.22
2023-07-16T11:37:38.014Z,96555.06
2023-07-16T11:42:43.275Z,96550.63
2023-07-16T11:47:46.766Z,96547.34
2023-07-16T11:52:54.609Z,96545.19
2023-07-16T11:58:00.825Z,96537.09
2023-07-16T12:03:04.418Z,96535.38
2023-07-16T12:08:07.673Z,96539.56
2023-07-16T12:13:12.436Z,96514.09
2023-07-16T12:18:15.716Z,96524.59
2023-07-16T12:23:19.050Z,96527.38
2023-07-16T12:28:23.632Z,96519.16
2023-07-16T12:33:26.979Z,96509.38
2023-07-16T12:38:30.223Z,96504.78
2023-07-16T12:43:36.908Z,96508.81
2023-07-16T12:48:42.653Z,96504.19
2023-07-16T12:53:46.246Z,96497.19
2023-07-16T12:58:51.213Z,96497.28
2023-07-16T13:03:54.496Z,96496.16
2023-07-16T13:08:57.934Z,96500.41
2023-07-16T13:14:02.553Z,96498.19
2023-07-16T13:19:06.169Z,96508.75
2023-07-16T13:24:09.415Z,96510.06
2023-07-16T13:29:14.052Z,96499.09
2023-07-16T13:34:17.291Z,96495.81
2023-07-16T13:39:20.678Z,96505.25
2023-07-16T13:44:25.474Z,96512.56
2023-07-16T13:49:28.783Z,96503.41
2023-07-16T13:54:32.021Z,96508.13
2023-07-16T13:59:36.672Z,96494.94
2023-07-16T14:04:40.016Z,96487.56
2023-07-16T14:09:43.293Z,96496.16
2023-07-16T14:14:47.910Z,96490.16
2023-07-16T14:19:51.533Z,96489.63
2023-07-16T14:24:54.767Z,96501.16
2023-07-16T14:30:05.927Z,96475.81
2023-07-16T14:35:18.565Z,96477.16
2023-07-16T14:40:29.229Z,96477.63
2023-07-16T14:45:34.249Z,96477.41
2023-07-16T14:50:37.547Z,96490.31
2023-07-16T14:55:41.163Z,96478.97
2023-07-16T15:00:46.096Z,96478.19
2023-07-16T15:05:49.356Z,96480.31
2023-07-16T15:10:53.422Z,96466.53
2023-07-16T15:15:59.489Z,96468.19
2023-07-16T15:21:04.215Z,96466.28
2023-07-16T15:26:12.240Z,96459.38
2023-07-16T15:31:16.943Z,96458.53
2023-07-16T15:36:20.638Z,96468.59
2023-07-16T15:41:26.471Z,96464.94
2023-07-16T15:46:31.186Z,96470.22
2023-07-16T15:51:37.280Z,96461.47
2023-07-16T15:56:40.485Z,96462.69
2023-07-16T16:01:45.328Z,96455.53
2023-07-16T16:06:48.601Z,96470.69
2023-07-16T16:11:52.035Z,96461.31
2023-07-16T16:17:06.812Z,96463.22
2023-07-16T16:22:11.683Z,96458.72
2023-07-16T16:27:17.273Z,96458.94
2023-07-16T16:32:21.917Z,96462.03
2023-07-16T16:37:25.404Z,96456.63
2023-07-16T16:42:28.582Z,96455.41
2023-07-16T16:47:33.330Z,96462.69
2023-07-16T16:52:36.795Z,96454.78
2023-07-16T16:57:40.043Z,96449.63
2023-07-16T17:02:44.648Z,96457.16
2023-07-16T17:07:47.938Z,96456.44
2023-07-16T17:12:51.206Z,96465.84
2023-07-16T17:17:58.848Z,96464.06
2023-07-16T17:23:03.539Z,96457.66
2023-07-16T17:28:06.960Z,96471.41
2023-07-16T17:33:11.898Z,96461.53
2023-07-16T17:38:15.113Z,96475.25
2023-07-16T17:43:18.329Z,96478.88
2023-07-16T17:48:23.312Z,96472.44
2023-07-16T17:53:26.598Z,96479.84
2023-07-16T17:58:30.757Z,96480.38
2023-07-16T18:03:35.503Z,96482.66
2023-07-16T18:08:39.196Z,96477.75
2023-07-16T18:13:42.851Z,96485.25
2023-07-16T18:18:47.511Z,96499.91
2023-07-16T18:23:51.374Z,96505.31
2023-07-16T18:28:54.633Z,96507.59
2023-07-16T18:33:59.374Z,96515.56
2023-07-16T18:39:03.893Z,96523.66
2023-07-16T18:44:09.631Z,96526.53
2023-07-16T18:49:14.412Z,96530.47
2023-07-16T18:54:18.279Z,96536.00
2023-07-16T18:59:21.552Z,96536.78
2023-07-16T19:04:26.277Z,96532.81
2023-07-16T19:09:29.556Z,96548.66
2023-07-16T19:14:32.863Z,96553.19
2023-07-16T19:19:37.470Z,96570.38
2023-07-16T19:24:40.953Z,96566.84
2023-07-16T19:29:44.339Z,96570.69
2023-07-16T19:34:49.300Z,96567.75
2023-07-16T19:39:52.559Z,96578.63
2023-07-16T19:44:56.925Z,96571.75
2023-07-16T19:50:06.241Z,96580.84
2023-07-16T19:55:09.738Z,96598.16
2023-07-16T20:00:14.154Z,96599.94
2023-07-16T20:05:19.319Z,96615.03
2023-07-16T20:10:22.843Z,96616.72
2023-07-16T20:15:26.788Z,96622.63
2023-07-16T20:20:31.428Z,96631.88
2023-07-16T20:25:34.617Z,96643.31
2023-07-16T20:30:38.183Z,96642.41
2023-07-16T20:35:42.773Z,96640.00
2023-07-16T20:40:47.900Z,96653.44
2023-07-16T20:45:51.234Z,96650.97
2023-07-16T20:50:55.805Z,96654.97
2023-07-16T20:56:00.050Z,96660.53
2023-07-16T21:01:04.772Z,96667.28
2023-07-16T21:06:09.475Z,96667.91
2023-07-16T21:11:12.802Z,96665.78
2023-07-16T21:16:16.110Z,96677.22
2023-07-16T21:21:21.426Z,96677.72
2023-07-16T21:26:24.727Z,96685.19
2023-07-16T21:31:28.051Z,96685.59
2023-07-16T21:36:32.680Z,96696.94
2023-07-16T21:41:36.077Z,96693.38
2023-07-16T21:46:39.323Z,96694.44
2023-07-16T21:51:44.182Z,96701.22
2023-07-16T21:56:47.506Z,96706.84
2023-07-16T22:01:50.775Z,96716.19
2023-07-16T22:06:55.475Z,96716.03
2023-07-16T22:11:58.740Z,96713.50
2023-07-16T22:17:01.930Z,96724.94
2023-07-16T22:22:07.202Z,96726.44
2023-07-16T22:27:10.595Z,96732.44
2023-07-16T22:32:13.826Z,96739.59
2023-07-16T22:37:18.499Z,96745.56
2023-07-16T22:42:21.662Z,96757.25
2023-07-16T22:47:24.907Z,96770.47
2023-07-16T22:52:29.498Z,96770.41
2023-07-16T22:57:32.783Z,96767.72
2023-07-16T23:02:36.133Z,96780.06
2023-07-16T23:07:42.510Z,96782.81
2023-07-16T23:12:46.033Z,96794.84
2023-07-16T23:17:49.287Z,96785.31
2023-07-16T23:22:54.089Z,96792.63
2023-07-16T23:27:57.355Z,96797.75
2023-07-16T23:33:00.684Z,96801.16
2023-07-16T23:38:05.574Z,96795.56
2023-07-16T23:43:09.055Z,96796.50
2023-07-16T23:48:12.322Z,96808.19
2023-07-16T23:53:18.593Z,96812.25
2023-07-16T23:58:22.238Z,96822.38
